sensor_id;sensor_type;location;lat;lon;timestamp;P1;durP1;ratioP1;P2;durP2;ratioP2
2522;SDS011;1272;53.332;9.860;2022-12-18T00:01:13;16.30;;;12.80;;
2522;SDS011;1272;53.332;9.860;2022-12-18T00:03:40;14.03;;;10.10;;
2522;SDS011;1272;53.332;9.860;2022-12-18T00:06:05;16.87;;;11.17;;
2522;SDS011;1272;53.332;9.860;2022-12-18T00:08:31;16.77;;;11.47;;
2522;SDS011;1272;53.332;9.860;2022-12-18T00:11:02;17.10;;;12.17;;
2522;SDS011;1272;53.332;9.860;2022-12-18T00:13:29;18.07;;;10.67;;
2522;SDS011;1272;53.332;9.860;2022-12-18T00:15:54;14.10;;;10.30;;
2522;SDS011;1272;53.332;9.860;2022-12-18T00:18:20;20.13;;;12.20;;
2522;SDS011;1272;53.332;9.860;2022-12-18T00:20:46;17.33;;;12.60;;
2522;SDS011;1272;53.332;9.860;2022-12-18T00:23:11;16.23;;;12.00;;
2522;SDS011;1272;53.332;9.860;2022-12-18T00:25:37;18.67;;;10.37;;
2522;SDS011;1272;53.332;9.860;2022-12-18T00:28:03;14.33;;;10.93;;
2522;SDS011;1272;53.332;9.860;2022-12-18T00:30:29;18.73;;;12.17;;
2522;SDS011;1272;53.332;9.860;2022-12-18T00:32:55;19.80;;;12.07;;
2522;SDS011;1272;53.332;9.860;2022-12-18T00:35:22;16.73;;;11.27;;
2522;SDS011;1272;53.332;9.860;2022-12-18T00:37:47;20.40;;;12.50;;
2522;SDS011;1272;53.332;9.860;2022-12-18T00:40:13;13.20;;;10.77;;
2522;SDS011;1272;53.332;9.860;2022-12-18T00:42:39;19.73;;;11.30;;
2522;SDS011;1272;53.332;9.860;2022-12-18T00:45:26;18.53;;;13.33;;
2522;SDS011;1272;53.332;9.860;2022-12-18T00:47:55;16.63;;;10.83;;
2522;SDS011;1272;53.332;9.860;2022-12-18T00:50:21;13.57;;;9.70;;
2522;SDS011;1272;53.332;9.860;2022-12-18T00:52:47;14.00;;;10.70;;
2522;SDS011;1272;53.332;9.860;2022-12-18T00:55:13;19.90;;;10.93;;
2522;SDS011;1272;53.332;9.860;2022-12-18T00:57:40;17.30;;;11.13;;
2522;SDS011;1272;53.332;9.860;2022-12-18T01:00:06;17.40;;;10.57;;
2522;SDS011;1272;53.332;9.860;2022-12-18T01:02:54;16.70;;;10.10;;
2522;SDS011;1272;53.332;9.860;2022-12-18T01:05:19;19.60;;;10.13;;
2522;SDS011;1272;53.332;9.860;2022-12-18T01:07:45;12.70;;;9.50;;
2522;SDS011;1272;53.332;9.860;2022-12-18T01:10:11;16.83;;;10.40;;
2522;SDS011;1272;53.332;9.860;2022-12-18T01:12:38;17.07;;;10.10;;
2522;SDS011;1272;53.332;9.860;2022-12-18T01:15:04;18.70;;;10.87;;
2522;SDS011;1272;53.332;9.860;2022-12-18T01:17:31;18.03;;;9.80;;
2522;SDS011;1272;53.332;9.860;2022-12-18T01:19:57;17.27;;;11.00;;
2522;SDS011;1272;53.332;9.860;2022-12-18T01:22:23;15.67;;;10.50;;
2522;SDS011;1272;53.332;9.860;2022-12-18T01:24:49;14.73;;;8.83;;
2522;SDS011;1272;53.332;9.860;2022-12-18T01:27:14;16.20;;;10.50;;
2522;SDS011;1272;53.332;9.860;2022-12-18T01:29:40;20.30;;;9.77;;
2522;SDS011;1272;53.332;9.860;2022-12-18T01:32:07;15.97;;;9.30;;
2522;SDS011;1272;53.332;9.860;2022-12-18T01:34:34;12.37;;;8.90;;
2522;SDS011;1272;53.332;9.860;2022-12-18T01:37:02;13.23;;;9.10;;
2522;SDS011;1272;53.332;9.860;2022-12-18T01:39:28;15.27;;;9.03;;
2522;SDS011;1272;53.332;9.860;2022-12-18T01:41:54;13.00;;;9.53;;
2522;SDS011;1272;53.332;9.860;2022-12-18T01:49:52;15.70;;;8.80;;
2522;SDS011;1272;53.332;9.860;2022-12-18T01:52:18;12.20;;;9.30;;
2522;SDS011;1272;53.332;9.860;2022-12-18T01:54:46;13.50;;;8.93;;
2522;SDS011;1272;53.332;9.860;2022-12-18T01:57:13;12.70;;;9.30;;
2522;SDS011;1272;53.332;9.860;2022-12-18T01:59:40;15.80;;;9.60;;
2522;SDS011;1272;53.332;9.860;2022-12-18T02:02:07;9.70;;;8.03;;
2522;SDS011;1272;53.332;9.860;2022-12-18T02:04:53;13.07;;;8.37;;
2522;SDS011;1272;53.332;9.860;2022-12-18T02:10:07;14.00;;;8.60;;
2522;SDS011;1272;53.332;9.860;2022-12-18T02:15:40;15.73;;;9.97;;
2522;SDS011;1272;53.332;9.860;2022-12-18T02:18:10;14.83;;;8.70;;
2522;SDS011;1272;53.332;9.860;2022-12-18T02:20:43;10.90;;;7.90;;
2522;SDS011;1272;53.332;9.860;2022-12-18T02:26:00;11.03;;;8.30;;
2522;SDS011;1272;53.332;9.860;2022-12-18T02:28:44;10.50;;;8.00;;
2522;SDS011;1272;53.332;9.860;2022-12-18T02:31:15;18.73;;;9.07;;
2522;SDS011;1272;53.332;9.860;2022-12-18T02:33:49;11.00;;;7.80;;
2522;SDS011;1272;53.332;9.860;2022-12-18T02:36:17;11.43;;;8.00;;
2522;SDS011;1272;53.332;9.860;2022-12-18T02:38:45;14.43;;;8.90;;
2522;SDS011;1272;53.332;9.860;2022-12-18T02:41:12;16.90;;;8.77;;
2522;SDS011;1272;53.332;9.860;2022-12-18T02:43:40;14.40;;;8.47;;
2522;SDS011;1272;53.332;9.860;2022-12-18T02:48:56;15.37;;;8.03;;
2522;SDS011;1272;53.332;9.860;2022-12-18T02:51:54;12.10;;;8.00;;
2522;SDS011;1272;53.332;9.860;2022-12-18T02:57:15;8.50;;;7.00;;
2522;SDS011;1272;53.332;9.860;2022-12-18T02:59:56;12.43;;;7.03;;
2522;SDS011;1272;53.332;9.860;2022-12-18T03:02:29;13.17;;;9.40;;
2522;SDS011;1272;53.332;9.860;2022-12-18T03:10:30;12.63;;;7.33;;
2522;SDS011;1272;53.332;9.860;2022-12-18T03:13:09;15.37;;;8.20;;
2522;SDS011;1272;53.332;9.860;2022-12-18T03:15:44;10.83;;;7.57;;
2522;SDS011;1272;53.332;9.860;2022-12-18T03:18:14;9.90;;;7.93;;
2522;SDS011;1272;53.332;9.860;2022-12-18T03:20:44;13.13;;;7.57;;
2522;SDS011;1272;53.332;9.860;2022-12-18T03:23:15;9.03;;;7.30;;
2522;SDS011;1272;53.332;9.860;2022-12-18T03:25:45;17.50;;;8.00;;
2522;SDS011;1272;53.332;9.860;2022-12-18T03:28:15;11.30;;;6.83;;
2522;SDS011;1272;53.332;9.860;2022-12-18T03:30:45;17.27;;;8.30;;
2522;SDS011;1272;53.332;9.860;2022-12-18T03:35:45;9.37;;;7.10;;
2522;SDS011;1272;53.332;9.860;2022-12-18T03:38:11;10.33;;;7.20;;
2522;SDS011;1272;53.332;9.860;2022-12-18T03:43:10;19.20;;;7.70;;
2522;SDS011;1272;53.332;9.860;2022-12-18T03:45:59;11.43;;;7.80;;
2522;SDS011;1272;53.332;9.860;2022-12-18T03:48:33;10.73;;;6.50;;
2522;SDS011;1272;53.332;9.860;2022-12-18T03:51:11;9.30;;;6.93;;
2522;SDS011;1272;53.332;9.860;2022-12-18T03:53:53;15.73;;;8.17;;
2522;SDS011;1272;53.332;9.860;2022-12-18T03:56:23;12.10;;;6.90;;
2522;SDS011;1272;53.332;9.860;2022-12-18T03:58:52;15.07;;;7.90;;
2522;SDS011;1272;53.332;9.860;2022-12-18T04:01:20;12.13;;;7.23;;
2522;SDS011;1272;53.332;9.860;2022-12-18T04:03:50;14.00;;;7.83;;
2522;SDS011;1272;53.332;9.860;2022-12-18T04:06:17;10.83;;;6.97;;
2522;SDS011;1272;53.332;9.860;2022-12-18T04:08:44;13.40;;;7.47;;
2522;SDS011;1272;53.332;9.860;2022-12-18T04:11:10;7.90;;;6.70;;
2522;SDS011;1272;53.332;9.860;2022-12-18T04:13:37;11.30;;;7.13;;
2522;SDS011;1272;53.332;9.860;2022-12-18T04:16:03;12.17;;;7.77;;
2522;SDS011;1272;53.332;9.860;2022-12-18T04:18:29;9.40;;;7.10;;
2522;SDS011;1272;53.332;9.860;2022-12-18T04:20:55;9.00;;;7.27;;
2522;SDS011;1272;53.332;9.860;2022-12-18T04:23:21;9.73;;;6.70;;
2522;SDS011;1272;53.332;9.860;2022-12-18T04:25:47;11.80;;;7.30;;
2522;SDS011;1272;53.332;9.860;2022-12-18T04:28:12;9.40;;;7.07;;
2522;SDS011;1272;53.332;9.860;2022-12-18T04:30:38;9.50;;;6.13;;
2522;SDS011;1272;53.332;9.860;2022-12-18T04:33:08;12.27;;;8.40;;
2522;SDS011;1272;53.332;9.860;2022-12-18T04:35:38;14.37;;;8.03;;
2522;SDS011;1272;53.332;9.860;2022-12-18T04:38:05;10.33;;;7.50;;
2522;SDS011;1272;53.332;9.860;2022-12-18T04:40:36;11.60;;;6.70;;
2522;SDS011;1272;53.332;9.860;2022-12-18T04:43:03;10.73;;;6.67;;
2522;SDS011;1272;53.332;9.860;2022-12-18T04:45:29;13.30;;;6.60;;
2522;SDS011;1272;53.332;9.860;2022-12-18T04:47:59;13.97;;;8.47;;
2522;SDS011;1272;53.332;9.860;2022-12-18T04:50:26;8.37;;;5.70;;
2522;SDS011;1272;53.332;9.860;2022-12-18T04:52:52;11.90;;;6.53;;
2522;SDS011;1272;53.332;9.860;2022-12-18T04:55:18;11.20;;;7.13;;
2522;SDS011;1272;53.332;9.860;2022-12-18T04:57:43;8.03;;;6.47;;
2522;SDS011;1272;53.332;9.860;2022-12-18T05:00:09;11.43;;;6.13;;
2522;SDS011;1272;53.332;9.860;2022-12-18T05:02:36;14.20;;;8.00;;
2522;SDS011;1272;53.332;9.860;2022-12-18T05:05:01;10.73;;;7.03;;
2522;SDS011;1272;53.332;9.860;2022-12-18T05:07:27;12.40;;;6.87;;
2522;SDS011;1272;53.332;9.860;2022-12-18T05:09:53;12.80;;;7.10;;
2522;SDS011;1272;53.332;9.860;2022-12-18T05:12:18;12.87;;;7.03;;
2522;SDS011;1272;53.332;9.860;2022-12-18T05:14:44;11.57;;;7.40;;
2522;SDS011;1272;53.332;9.860;2022-12-18T05:17:10;9.17;;;7.00;;
2522;SDS011;1272;53.332;9.860;2022-12-18T05:19:39;10.10;;;7.77;;
2522;SDS011;1272;53.332;9.860;2022-12-18T05:22:07;13.07;;;7.90;;
2522;SDS011;1272;53.332;9.860;2022-12-18T05:24:33;11.03;;;8.17;;
2522;SDS011;1272;53.332;9.860;2022-12-18T05:26:59;12.47;;;6.97;;
2522;SDS011;1272;53.332;9.860;2022-12-18T05:29:25;11.47;;;7.23;;
2522;SDS011;1272;53.332;9.860;2022-12-18T05:31:51;12.97;;;7.73;;
2522;SDS011;1272;53.332;9.860;2022-12-18T05:34:16;14.10;;;8.00;;
2522;SDS011;1272;53.332;9.860;2022-12-18T05:36:42;7.47;;;6.20;;
2522;SDS011;1272;53.332;9.860;2022-12-18T05:39:09;10.43;;;7.40;;
2522;SDS011;1272;53.332;9.860;2022-12-18T05:41:35;9.73;;;6.77;;
2522;SDS011;1272;53.332;9.860;2022-12-18T05:44:00;10.47;;;7.40;;
2522;SDS011;1272;53.332;9.860;2022-12-18T05:46:26;14.10;;;7.00;;
2522;SDS011;1272;53.332;9.860;2022-12-18T05:48:52;15.07;;;7.53;;
2522;SDS011;1272;53.332;9.860;2022-12-18T05:51:19;8.30;;;7.10;;
2522;SDS011;1272;53.332;9.860;2022-12-18T05:53:46;12.07;;;5.87;;
2522;SDS011;1272;53.332;9.860;2022-12-18T05:56:14;9.53;;;7.23;;
2522;SDS011;1272;53.332;9.860;2022-12-18T05:58:45;18.13;;;7.30;;
2522;SDS011;1272;53.332;9.860;2022-12-18T06:01:22;12.33;;;6.77;;
2522;SDS011;1272;53.332;9.860;2022-12-18T06:03:49;9.20;;;6.20;;
2522;SDS011;1272;53.332;9.860;2022-12-18T06:06:22;9.90;;;6.43;;
2522;SDS011;1272;53.332;9.860;2022-12-18T06:08:51;14.20;;;7.70;;
2522;SDS011;1272;53.332;9.860;2022-12-18T06:11:21;10.97;;;8.03;;
2522;SDS011;1272;53.332;9.860;2022-12-18T06:13:52;10.43;;;7.37;;
2522;SDS011;1272;53.332;9.860;2022-12-18T06:16:18;12.90;;;7.80;;
2522;SDS011;1272;53.332;9.860;2022-12-18T06:18:44;10.13;;;7.63;;
2522;SDS011;1272;53.332;9.860;2022-12-18T06:21:11;10.70;;;7.30;;
2522;SDS011;1272;53.332;9.860;2022-12-18T06:23:36;10.43;;;7.33;;
2522;SDS011;1272;53.332;9.860;2022-12-18T06:26:03;13.57;;;7.30;;
2522;SDS011;1272;53.332;9.860;2022-12-18T06:28:30;14.93;;;8.00;;
2522;SDS011;1272;53.332;9.860;2022-12-18T06:30:56;11.60;;;6.90;;
2522;SDS011;1272;53.332;9.860;2022-12-18T06:33:22;13.57;;;6.43;;
2522;SDS011;1272;53.332;9.860;2022-12-18T06:35:52;9.03;;;6.73;;
2522;SDS011;1272;53.332;9.860;2022-12-18T06:38:18;9.17;;;7.20;;
2522;SDS011;1272;53.332;9.860;2022-12-18T06:40:44;13.30;;;7.70;;
2522;SDS011;1272;53.332;9.860;2022-12-18T06:43:10;10.10;;;7.23;;
2522;SDS011;1272;53.332;9.860;2022-12-18T06:45:35;13.70;;;8.30;;
2522;SDS011;1272;53.332;9.860;2022-12-18T06:48:01;12.40;;;6.87;;
2522;SDS011;1272;53.332;9.860;2022-12-18T06:50:27;13.50;;;7.20;;
2522;SDS011;1272;53.332;9.860;2022-12-18T06:52:52;7.90;;;6.37;;
2522;SDS011;1272;53.332;9.860;2022-12-18T06:55:18;7.70;;;6.83;;
2522;SDS011;1272;53.332;9.860;2022-12-18T06:57:44;10.60;;;6.97;;
2522;SDS011;1272;53.332;9.860;2022-12-18T07:00:10;12.60;;;7.90;;
2522;SDS011;1272;53.332;9.860;2022-12-18T07:02:36;10.10;;;7.23;;
2522;SDS011;1272;53.332;9.860;2022-12-18T07:05:02;11.73;;;7.30;;
2522;SDS011;1272;53.332;9.860;2022-12-18T07:07:28;8.60;;;6.83;;
2522;SDS011;1272;53.332;9.860;2022-12-18T07:09:53;11.40;;;6.60;;
2522;SDS011;1272;53.332;9.860;2022-12-18T07:12:19;13.73;;;6.77;;
2522;SDS011;1272;53.332;9.860;2022-12-18T07:14:45;10.87;;;6.60;;
2522;SDS011;1272;53.332;9.860;2022-12-18T07:17:10;9.00;;;6.53;;
2522;SDS011;1272;53.332;9.860;2022-12-18T07:19:36;10.33;;;6.50;;
2522;SDS011;1272;53.332;9.860;2022-12-18T07:22:02;9.17;;;6.90;;
2522;SDS011;1272;53.332;9.860;2022-12-18T07:24:28;9.13;;;6.57;;
2522;SDS011;1272;53.332;9.860;2022-12-18T07:26:53;9.53;;;6.40;;
2522;SDS011;1272;53.332;9.860;2022-12-18T07:29:19;10.20;;;5.70;;
2522;SDS011;1272;53.332;9.860;2022-12-18T07:31:45;12.70;;;7.13;;
2522;SDS011;1272;53.332;9.860;2022-12-18T07:34:11;11.63;;;7.13;;
2522;SDS011;1272;53.332;9.860;2022-12-18T07:36:38;10.93;;;6.80;;
2522;SDS011;1272;53.332;9.860;2022-12-18T07:39:03;10.20;;;7.20;;
2522;SDS011;1272;53.332;9.860;2022-12-18T07:41:29;12.03;;;7.07;;
2522;SDS011;1272;53.332;9.860;2022-12-18T07:43:56;11.07;;;7.47;;
2522;SDS011;1272;53.332;9.860;2022-12-18T07:46:22;10.93;;;7.33;;
2522;SDS011;1272;53.332;9.860;2022-12-18T07:48:47;11.37;;;7.87;;
2522;SDS011;1272;53.332;9.860;2022-12-18T07:51:13;12.90;;;7.03;;
2522;SDS011;1272;53.332;9.860;2022-12-18T07:53:39;9.63;;;7.43;;
2522;SDS011;1272;53.332;9.860;2022-12-18T07:56:06;10.20;;;7.40;;
2522;SDS011;1272;53.332;9.860;2022-12-18T07:58:34;12.57;;;7.73;;
2522;SDS011;1272;53.332;9.860;2022-12-18T08:01:04;10.10;;;7.53;;
2522;SDS011;1272;53.332;9.860;2022-12-18T08:03:32;11.00;;;7.07;;
2522;SDS011;1272;53.332;9.860;2022-12-18T08:06:01;11.10;;;7.13;;
2522;SDS011;1272;53.332;9.860;2022-12-18T08:08:28;14.30;;;7.77;;
2522;SDS011;1272;53.332;9.860;2022-12-18T08:10:57;9.17;;;7.40;;
2522;SDS011;1272;53.332;9.860;2022-12-18T08:13:23;14.73;;;7.87;;
2522;SDS011;1272;53.332;9.860;2022-12-18T08:15:59;12.10;;;7.60;;
2522;SDS011;1272;53.332;9.860;2022-12-18T08:18:29;10.93;;;7.20;;
2522;SDS011;1272;53.332;9.860;2022-12-18T08:21:06;10.33;;;7.60;;
2522;SDS011;1272;53.332;9.860;2022-12-18T08:23:37;11.80;;;7.47;;
2522;SDS011;1272;53.332;9.860;2022-12-18T08:26:03;8.50;;;6.80;;
2522;SDS011;1272;53.332;9.860;2022-12-18T08:28:29;13.90;;;7.87;;
2522;SDS011;1272;53.332;9.860;2022-12-18T08:30:55;11.90;;;7.87;;
2522;SDS011;1272;53.332;9.860;2022-12-18T08:33:20;10.73;;;7.20;;
2522;SDS011;1272;53.332;9.860;2022-12-18T08:35:46;14.97;;;8.07;;
2522;SDS011;1272;53.332;9.860;2022-12-18T08:38:11;15.77;;;8.47;;
2522;SDS011;1272;53.332;9.860;2022-12-18T08:40:37;13.00;;;8.20;;
2522;SDS011;1272;53.332;9.860;2022-12-18T08:43:03;12.13;;;7.77;;
2522;SDS011;1272;53.332;9.860;2022-12-18T08:45:47;11.07;;;7.90;;
2522;SDS011;1272;53.332;9.860;2022-12-18T08:48:13;12.50;;;7.90;;
2522;SDS011;1272;53.332;9.860;2022-12-18T08:50:39;10.43;;;7.37;;
2522;SDS011;1272;53.332;9.860;2022-12-18T08:53:05;10.90;;;8.07;;
2522;SDS011;1272;53.332;9.860;2022-12-18T08:55:30;13.60;;;7.87;;
2522;SDS011;1272;53.332;9.860;2022-12-18T08:57:56;13.03;;;8.23;;
2522;SDS011;1272;53.332;9.860;2022-12-18T09:00:22;12.00;;;8.07;;
2522;SDS011;1272;53.332;9.860;2022-12-18T09:02:47;12.83;;;8.10;;
2522;SDS011;1272;53.332;9.860;2022-12-18T09:05:13;10.67;;;8.27;;
2522;SDS011;1272;53.332;9.860;2022-12-18T09:07:39;10.00;;;8.10;;
2522;SDS011;1272;53.332;9.860;2022-12-18T09:10:04;8.80;;;7.20;;
2522;SDS011;1272;53.332;9.860;2022-12-18T09:12:30;11.23;;;7.70;;
2522;SDS011;1272;53.332;9.860;2022-12-18T09:14:56;10.57;;;8.13;;
2522;SDS011;1272;53.332;9.860;2022-12-18T09:17:22;11.50;;;8.60;;
2522;SDS011;1272;53.332;9.860;2022-12-18T09:19:48;13.13;;;8.77;;
2522;SDS011;1272;53.332;9.860;2022-12-18T09:22:14;17.33;;;9.13;;
2522;SDS011;1272;53.332;9.860;2022-12-18T09:24:40;24.53;;;9.13;;
2522;SDS011;1272;53.332;9.860;2022-12-18T09:27:05;12.90;;;8.20;;
2522;SDS011;1272;53.332;9.860;2022-12-18T09:29:31;10.23;;;8.03;;
2522;SDS011;1272;53.332;9.860;2022-12-18T09:31:57;12.07;;;8.13;;
2522;SDS011;1272;53.332;9.860;2022-12-18T09:34:23;13.90;;;9.10;;
2522;SDS011;1272;53.332;9.860;2022-12-18T09:36:49;14.10;;;8.50;;
2522;SDS011;1272;53.332;9.860;2022-12-18T09:39:15;14.53;;;9.40;;
2522;SDS011;1272;53.332;9.860;2022-12-18T09:41:47;13.63;;;8.20;;
2522;SDS011;1272;53.332;9.860;2022-12-18T09:44:22;13.10;;;7.83;;
2522;SDS011;1272;53.332;9.860;2022-12-18T09:49:34;13.13;;;8.00;;
2522;SDS011;1272;53.332;9.860;2022-12-18T09:54:45;11.80;;;8.00;;
2522;SDS011;1272;53.332;9.860;2022-12-18T09:57:24;11.70;;;9.10;;
2522;SDS011;1272;53.332;9.860;2022-12-18T09:59:59;13.00;;;8.33;;
2522;SDS011;1272;53.332;9.860;2022-12-18T10:02:58;15.30;;;8.73;;
2522;SDS011;1272;53.332;9.860;2022-12-18T10:05:31;9.23;;;7.30;;
2522;SDS011;1272;53.332;9.860;2022-12-18T10:08:05;12.70;;;8.53;;
2522;SDS011;1272;53.332;9.860;2022-12-18T10:13:37;11.17;;;7.50;;
2522;SDS011;1272;53.332;9.860;2022-12-18T10:16:12;13.30;;;7.43;;
2522;SDS011;1272;53.332;9.860;2022-12-18T10:21:23;9.87;;;6.87;;
2522;SDS011;1272;53.332;9.860;2022-12-18T10:26:40;10.60;;;6.80;;
2522;SDS011;1272;53.332;9.860;2022-12-18T10:29:11;10.60;;;8.10;;
2522;SDS011;1272;53.332;9.860;2022-12-18T10:31:38;11.43;;;7.50;;
2522;SDS011;1272;53.332;9.860;2022-12-18T10:34:07;7.73;;;6.60;;
2522;SDS011;1272;53.332;9.860;2022-12-18T10:36:40;11.07;;;7.40;;
2522;SDS011;1272;53.332;9.860;2022-12-18T10:39:14;13.63;;;7.70;;
2522;SDS011;1272;53.332;9.860;2022-12-18T10:41:41;9.63;;;7.43;;
2522;SDS011;1272;53.332;9.860;2022-12-18T10:44:11;14.83;;;8.37;;
2522;SDS011;1272;53.332;9.860;2022-12-18T10:46:45;8.67;;;7.03;;
2522;SDS011;1272;53.332;9.860;2022-12-18T10:49:25;8.00;;;7.10;;
2522;SDS011;1272;53.332;9.860;2022-12-18T10:52:04;10.50;;;7.20;;
2522;SDS011;1272;53.332;9.860;2022-12-18T10:54:32;8.47;;;6.50;;
2522;SDS011;1272;53.332;9.860;2022-12-18T10:57:28;9.23;;;7.63;;
2522;SDS011;1272;53.332;9.860;2022-12-18T11:00:20;10.10;;;7.10;;
2522;SDS011;1272;53.332;9.860;2022-12-18T11:02:54;10.00;;;6.50;;
2522;SDS011;1272;53.332;9.860;2022-12-18T11:07:54;9.83;;;6.80;;
2522;SDS011;1272;53.332;9.860;2022-12-18T11:10:22;8.93;;;6.27;;
2522;SDS011;1272;53.332;9.860;2022-12-18T11:12:53;10.30;;;6.37;;
2522;SDS011;1272;53.332;9.860;2022-12-18T11:15:20;9.73;;;6.40;;
2522;SDS011;1272;53.332;9.860;2022-12-18T11:17:52;9.63;;;6.60;;
2522;SDS011;1272;53.332;9.860;2022-12-18T11:20:24;10.67;;;6.57;;
2522;SDS011;1272;53.332;9.860;2022-12-18T11:22:56;8.70;;;6.53;;
2522;SDS011;1272;53.332;9.860;2022-12-18T11:25:29;11.33;;;7.30;;
2522;SDS011;1272;53.332;9.860;2022-12-18T11:27:58;10.00;;;6.20;;
2522;SDS011;1272;53.332;9.860;2022-12-18T11:30:30;7.33;;;6.23;;
2522;SDS011;1272;53.332;9.860;2022-12-18T11:33:00;6.50;;;5.60;;
2522;SDS011;1272;53.332;9.860;2022-12-18T11:35:47;8.50;;;5.70;;
2522;SDS011;1272;53.332;9.860;2022-12-18T11:38:32;9.90;;;6.00;;
2522;SDS011;1272;53.332;9.860;2022-12-18T11:44:13;10.60;;;5.60;;
2522;SDS011;1272;53.332;9.860;2022-12-18T11:46:46;8.07;;;5.83;;
2522;SDS011;1272;53.332;9.860;2022-12-18T11:49:28;8.60;;;6.10;;
2522;SDS011;1272;53.332;9.860;2022-12-18T11:52:10;10.97;;;6.50;;
2522;SDS011;1272;53.332;9.860;2022-12-18T11:54:43;7.23;;;5.30;;
2522;SDS011;1272;53.332;9.860;2022-12-18T12:00:10;6.57;;;5.57;;
2522;SDS011;1272;53.332;9.860;2022-12-18T12:02:57;5.23;;;4.73;;
2522;SDS011;1272;53.332;9.860;2022-12-18T12:08:39;10.10;;;5.13;;
2522;SDS011;1272;53.332;9.860;2022-12-18T12:11:25;5.23;;;4.77;;
2522;SDS011;1272;53.332;9.860;2022-12-18T12:14:07;5.17;;;4.70;;
2522;SDS011;1272;53.332;9.860;2022-12-18T12:22:12;6.70;;;5.27;;
2522;SDS011;1272;53.332;9.860;2022-12-18T12:35:31;5.40;;;4.63;;
2522;SDS011;1272;53.332;9.860;2022-12-18T12:38:07;4.70;;;4.30;;
2522;SDS011;1272;53.332;9.860;2022-12-18T12:40:42;7.40;;;5.03;;
2522;SDS011;1272;53.332;9.860;2022-12-18T12:45:50;7.03;;;4.63;;
2522;SDS011;1272;53.332;9.860;2022-12-18T12:51:02;6.97;;;4.83;;
2522;SDS011;1272;53.332;9.860;2022-12-18T12:53:35;5.47;;;3.93;;
2522;SDS011;1272;53.332;9.860;2022-12-18T12:56:04;4.30;;;3.40;;
2522;SDS011;1272;53.332;9.860;2022-12-18T12:58:33;7.90;;;4.50;;
2522;SDS011;1272;53.332;9.860;2022-12-18T13:09:24;5.30;;;3.80;;
2522;SDS011;1272;53.332;9.860;2022-12-18T13:11:54;7.10;;;4.77;;
2522;SDS011;1272;53.332;9.860;2022-12-18T13:14:55;4.27;;;3.87;;
2522;SDS011;1272;53.332;9.860;2022-12-18T13:17:46;4.40;;;4.00;;
2522;SDS011;1272;53.332;9.860;2022-12-18T13:20:12;5.93;;;4.60;;
2522;SDS011;1272;53.332;9.860;2022-12-18T13:22:44;6.30;;;4.63;;
2522;SDS011;1272;53.332;9.860;2022-12-18T13:25:30;10.37;;;4.90;;
2522;SDS011;1272;53.332;9.860;2022-12-18T13:28:16;5.77;;;4.07;;
2522;SDS011;1272;53.332;9.860;2022-12-18T13:30:48;5.20;;;4.40;;
2522;SDS011;1272;53.332;9.860;2022-12-18T13:33:34;8.63;;;5.90;;
2522;SDS011;1272;53.332;9.860;2022-12-18T13:41:43;5.87;;;5.20;;
2522;SDS011;1272;53.332;9.860;2022-12-18T13:46:55;9.10;;;5.77;;
2522;SDS011;1272;53.332;9.860;2022-12-18T13:49:25;9.50;;;6.53;;
2522;SDS011;1272;53.332;9.860;2022-12-18T13:52:26;8.60;;;6.43;;
2522;SDS011;1272;53.332;9.860;2022-12-18T13:54:58;7.67;;;6.67;;
2522;SDS011;1272;53.332;9.860;2022-12-18T13:57:30;9.47;;;7.10;;
2522;SDS011;1272;53.332;9.860;2022-12-18T13:59:58;10.23;;;7.57;;
2522;SDS011;1272;53.332;9.860;2022-12-18T14:02:44;11.40;;;8.57;;
2522;SDS011;1272;53.332;9.860;2022-12-18T14:05:32;12.30;;;8.03;;
2522;SDS011;1272;53.332;9.860;2022-12-18T14:08:01;17.67;;;9.20;;
2522;SDS011;1272;53.332;9.860;2022-12-18T14:10:35;15.70;;;9.00;;
2522;SDS011;1272;53.332;9.860;2022-12-18T14:13:05;22.83;;;10.53;;
2522;SDS011;1272;53.332;9.860;2022-12-18T14:15:43;15.43;;;9.77;;
2522;SDS011;1272;53.332;9.860;2022-12-18T14:20:59;15.53;;;10.37;;
2522;SDS011;1272;53.332;9.860;2022-12-18T14:23:31;25.60;;;10.13;;
2522;SDS011;1272;53.332;9.860;2022-12-18T14:26:03;13.90;;;9.10;;
2522;SDS011;1272;53.332;9.860;2022-12-18T14:28:48;17.87;;;10.67;;
2522;SDS011;1272;53.332;9.860;2022-12-18T14:31:18;12.90;;;9.70;;
2522;SDS011;1272;53.332;9.860;2022-12-18T14:33:45;18.20;;;12.27;;
2522;SDS011;1272;53.332;9.860;2022-12-18T14:36:21;16.43;;;10.63;;
2522;SDS011;1272;53.332;9.860;2022-12-18T14:38:52;16.90;;;11.33;;
2522;SDS011;1272;53.332;9.860;2022-12-18T14:41:22;18.10;;;10.60;;
2522;SDS011;1272;53.332;9.860;2022-12-18T14:43:53;21.03;;;11.43;;
2522;SDS011;1272;53.332;9.860;2022-12-18T14:48:57;18.50;;;11.00;;
2522;SDS011;1272;53.332;9.860;2022-12-18T14:51:28;15.50;;;10.53;;
2522;SDS011;1272;53.332;9.860;2022-12-18T14:53:57;24.73;;;14.87;;
2522;SDS011;1272;53.332;9.860;2022-12-18T14:56:51;29.57;;;17.53;;
2522;SDS011;1272;53.332;9.860;2022-12-18T14:59:27;19.33;;;13.13;;
2522;SDS011;1272;53.332;9.860;2022-12-18T15:04:27;18.57;;;12.87;;
2522;SDS011;1272;53.332;9.860;2022-12-18T15:07:03;22.37;;;13.67;;
2522;SDS011;1272;53.332;9.860;2022-12-18T15:09:40;21.87;;;13.20;;
2522;SDS011;1272;53.332;9.860;2022-12-18T15:12:24;28.00;;;15.93;;
2522;SDS011;1272;53.332;9.860;2022-12-18T15:14:58;25.57;;;14.50;;
2522;SDS011;1272;53.332;9.860;2022-12-18T15:17:23;26.73;;;14.83;;
2522;SDS011;1272;53.332;9.860;2022-12-18T15:19:50;22.30;;;13.27;;
2522;SDS011;1272;53.332;9.860;2022-12-18T15:25:00;27.37;;;14.70;;
2522;SDS011;1272;53.332;9.860;2022-12-18T15:32:26;21.53;;;14.13;;
2522;SDS011;1272;53.332;9.860;2022-12-18T15:35:01;30.13;;;15.83;;
2522;SDS011;1272;53.332;9.860;2022-12-18T15:37:40;27.10;;;15.93;;
2522;SDS011;1272;53.332;9.860;2022-12-18T15:40:07;27.50;;;15.43;;
2522;SDS011;1272;53.332;9.860;2022-12-18T15:42:36;29.07;;;13.93;;
2522;SDS011;1272;53.332;9.860;2022-12-18T15:45:21;26.40;;;15.00;;
2522;SDS011;1272;53.332;9.860;2022-12-18T15:47:47;27.93;;;15.30;;
2522;SDS011;1272;53.332;9.860;2022-12-18T15:50:12;27.50;;;15.17;;
2522;SDS011;1272;53.332;9.860;2022-12-18T15:52:41;29.57;;;16.30;;
2522;SDS011;1272;53.332;9.860;2022-12-18T15:55:11;25.90;;;15.70;;
2522;SDS011;1272;53.332;9.860;2022-12-18T15:58:00;29.67;;;14.60;;
2522;SDS011;1272;53.332;9.860;2022-12-18T16:00:25;31.43;;;16.53;;
2522;SDS011;1272;53.332;9.860;2022-12-18T16:02:52;27.13;;;15.00;;
2522;SDS011;1272;53.332;9.860;2022-12-18T16:05:18;32.30;;;17.80;;
2522;SDS011;1272;53.332;9.860;2022-12-18T16:07:45;25.80;;;14.77;;
2522;SDS011;1272;53.332;9.860;2022-12-18T16:10:11;28.97;;;16.47;;
2522;SDS011;1272;53.332;9.860;2022-12-18T16:12:37;33.73;;;17.77;;
2522;SDS011;1272;53.332;9.860;2022-12-18T16:15:03;31.60;;;16.77;;
2522;SDS011;1272;53.332;9.860;2022-12-18T16:17:30;31.00;;;16.20;;
2522;SDS011;1272;53.332;9.860;2022-12-18T16:19:56;30.30;;;17.47;;
2522;SDS011;1272;53.332;9.860;2022-12-18T16:22:23;36.67;;;17.80;;
2522;SDS011;1272;53.332;9.860;2022-12-18T16:24:53;30.17;;;16.67;;
2522;SDS011;1272;53.332;9.860;2022-12-18T16:27:20;30.40;;;17.03;;
2522;SDS011;1272;53.332;9.860;2022-12-18T16:29:47;26.33;;;15.40;;
2522;SDS011;1272;53.332;9.860;2022-12-18T16:32:14;33.10;;;17.17;;
2522;SDS011;1272;53.332;9.860;2022-12-18T16:34:42;25.80;;;15.57;;
2522;SDS011;1272;53.332;9.860;2022-12-18T16:37:09;31.40;;;17.20;;
2522;SDS011;1272;53.332;9.860;2022-12-18T16:39:36;24.23;;;15.40;;
2522;SDS011;1272;53.332;9.860;2022-12-18T16:42:04;26.47;;;16.23;;
2522;SDS011;1272;53.332;9.860;2022-12-18T16:44:37;33.37;;;17.03;;
2522;SDS011;1272;53.332;9.860;2022-12-18T16:47:03;29.17;;;16.23;;
2522;SDS011;1272;53.332;9.860;2022-12-18T16:49:29;28.33;;;16.00;;
2522;SDS011;1272;53.332;9.860;2022-12-18T16:51:55;25.60;;;15.77;;
2522;SDS011;1272;53.332;9.860;2022-12-18T16:54:21;29.33;;;17.10;;
2522;SDS011;1272;53.332;9.860;2022-12-18T16:56:46;27.17;;;16.00;;
2522;SDS011;1272;53.332;9.860;2022-12-18T16:59:15;28.53;;;15.50;;
2522;SDS011;1272;53.332;9.860;2022-12-18T17:01:41;28.53;;;14.10;;
2522;SDS011;1272;53.332;9.860;2022-12-18T17:04:07;33.87;;;17.00;;
2522;SDS011;1272;53.332;9.860;2022-12-18T17:06:35;25.30;;;15.10;;